sensor_id;sensor_type;location;lat;lon;timestamp;P1;durP1;ratioP1;P2;durP2;ratioP2
16593;SDS011;8410;52.532;13.336;2022-07-29T00:01:01;7.03;;;3.50;;
16593;SDS011;8410;52.532;13.336;2022-07-29T00:03:29;7.27;;;3.07;;
16593;SDS011;8410;52.532;13.336;2022-07-29T00:05:57;5.77;;;3.93;;
16593;SDS011;8410;52.532;13.336;2022-07-29T00:08:26;10.13;;;3.87;;
16593;SDS011;8410;52.532;13.336;2022-07-29T00:10:54;8.10;;;3.77;;
16593;SDS011;8410;52.532;13.336;2022-07-29T00:13:23;6.57;;;4.03;;
16593;SDS011;8410;52.532;13.336;2022-07-29T00:15:57;6.77;;;4.33;;
16593;SDS011;8410;52.532;13.336;2022-07-29T00:18:30;7.47;;;4.13;;
16593;SDS011;8410;52.532;13.336;2022-07-29T00:20:58;8.03;;;4.20;;
16593;SDS011;8410;52.532;13.336;2022-07-29T00:23:26;5.27;;;4.10;;
16593;SDS011;8410;52.532;13.336;2022-07-29T00:25:56;7.63;;;3.60;;
16593;SDS011;8410;52.532;13.336;2022-07-29T00:28:26;6.90;;;4.57;;
16593;SDS011;8410;52.532;13.336;2022-07-29T00:30:54;7.13;;;4.03;;
16593;SDS011;8410;52.532;13.336;2022-07-29T00:33:22;7.87;;;4.30;;
16593;SDS011;8410;52.532;13.336;2022-07-29T00:35:50;5.83;;;4.13;;
16593;SDS011;8410;52.532;13.336;2022-07-29T00:38:18;7.37;;;4.13;;
16593;SDS011;8410;52.532;13.336;2022-07-29T00:40:47;4.70;;;3.77;;
16593;SDS011;8410;52.532;13.336;2022-07-29T00:43:15;8.87;;;4.20;;
16593;SDS011;8410;52.532;13.336;2022-07-29T00:45:48;8.93;;;4.23;;
16593;SDS011;8410;52.532;13.336;2022-07-29T00:48:16;7.43;;;4.40;;
16593;SDS011;8410;52.532;13.336;2022-07-29T00:50:44;7.37;;;4.43;;
16593;SDS011;8410;52.532;13.336;2022-07-29T00:53:12;9.47;;;4.47;;
16593;SDS011;8410;52.532;13.336;2022-07-29T00:55:40;16.43;;;14.07;;
16593;SDS011;8410;52.532;13.336;2022-07-29T00:58:08;7.27;;;5.07;;
16593;SDS011;8410;52.532;13.336;2022-07-29T01:00:39;5.00;;;3.97;;
16593;SDS011;8410;52.532;13.336;2022-07-29T01:03:11;5.43;;;3.90;;
16593;SDS011;8410;52.532;13.336;2022-07-29T01:05:39;8.07;;;4.33;;
16593;SDS011;8410;52.532;13.336;2022-07-29T01:08:16;8.90;;;4.07;;
16593;SDS011;8410;52.532;13.336;2022-07-29T01:10:46;5.37;;;4.10;;
16593;SDS011;8410;52.532;13.336;2022-07-29T01:13:15;5.97;;;3.60;;
16593;SDS011;8410;52.532;13.336;2022-07-29T01:15:46;5.07;;;3.60;;
16593;SDS011;8410;52.532;13.336;2022-07-29T01:18:24;6.70;;;3.97;;
16593;SDS011;8410;52.532;13.336;2022-07-29T01:21:07;7.80;;;4.13;;
16593;SDS011;8410;52.532;13.336;2022-07-29T01:23:59;7.40;;;4.30;;
16593;SDS011;8410;52.532;13.336;2022-07-29T01:26:57;5.07;;;3.97;;
16593;SDS011;8410;52.532;13.336;2022-07-29T01:29:44;5.73;;;3.90;;
16593;SDS011;8410;52.532;13.336;2022-07-29T01:32:24;7.40;;;4.33;;
16593;SDS011;8410;52.532;13.336;2022-07-29T01:34:58;4.13;;;3.40;;
16593;SDS011;8410;52.532;13.336;2022-07-29T01:37:38;8.47;;;3.80;;
16593;SDS011;8410;52.532;13.336;2022-07-29T01:40:19;5.60;;;3.40;;
16593;SDS011;8410;52.532;13.336;2022-07-29T01:42:51;5.67;;;4.03;;
16593;SDS011;8410;52.532;13.336;2022-07-29T01:45:26;6.20;;;3.87;;
16593;SDS011;8410;52.532;13.336;2022-07-29T01:48:04;8.03;;;3.50;;
16593;SDS011;8410;52.532;13.336;2022-07-29T01:50:43;6.73;;;4.00;;
16593;SDS011;8410;52.532;13.336;2022-07-29T01:53:21;7.90;;;4.10;;
16593;SDS011;8410;52.532;13.336;2022-07-29T01:56:03;6.13;;;3.60;;
16593;SDS011;8410;52.532;13.336;2022-07-29T01:58:33;6.43;;;3.70;;
16593;SDS011;8410;52.532;13.336;2022-07-29T02:01:07;6.30;;;3.43;;
16593;SDS011;8410;52.532;13.336;2022-07-29T02:03:38;4.13;;;3.70;;
16593;SDS011;8410;52.532;13.336;2022-07-29T02:06:12;9.30;;;4.37;;
16593;SDS011;8410;52.532;13.336;2022-07-29T02:08:48;7.07;;;3.63;;
16593;SDS011;8410;52.532;13.336;2022-07-29T02:11:18;6.27;;;3.90;;
16593;SDS011;8410;52.532;13.336;2022-07-29T02:13:46;5.70;;;3.20;;
16593;SDS011;8410;52.532;13.336;2022-07-29T02:16:17;9.40;;;3.90;;
16593;SDS011;8410;52.532;13.336;2022-07-29T02:18:52;6.30;;;3.70;;
16593;SDS011;8410;52.532;13.336;2022-07-29T02:21:23;6.23;;;3.73;;
16593;SDS011;8410;52.532;13.336;2022-07-29T02:23:54;7.87;;;3.70;;
16593;SDS011;8410;52.532;13.336;2022-07-29T02:26:26;5.07;;;3.33;;
16593;SDS011;8410;52.532;13.336;2022-07-29T02:28:57;7.30;;;3.47;;
16593;SDS011;8410;52.532;13.336;2022-07-29T02:31:30;6.27;;;4.13;;
16593;SDS011;8410;52.532;13.336;2022-07-29T02:34:03;7.10;;;3.50;;
16593;SDS011;8410;52.532;13.336;2022-07-29T02:36:35;5.53;;;3.87;;
16593;SDS011;8410;52.532;13.336;2022-07-29T02:39:05;8.10;;;3.60;;
16593;SDS011;8410;52.532;13.336;2022-07-29T02:41:37;5.57;;;3.27;;
16593;SDS011;8410;52.532;13.336;2022-07-29T02:44:11;4.80;;;3.70;;
16593;SDS011;8410;52.532;13.336;2022-07-29T02:46:45;6.77;;;3.80;;
16593;SDS011;8410;52.532;13.336;2022-07-29T02:49:22;6.30;;;3.60;;
16593;SDS011;8410;52.532;13.336;2022-07-29T02:52:04;9.23;;;3.73;;
16593;SDS011;8410;52.532;13.336;2022-07-29T02:54:41;5.90;;;3.47;;
16593;SDS011;8410;52.532;13.336;2022-07-29T02:57:18;9.13;;;3.67;;
16593;SDS011;8410;52.532;13.336;2022-07-29T02:59:53;4.83;;;3.17;;
16593;SDS011;8410;52.532;13.336;2022-07-29T03:02:27;4.33;;;3.17;;
16593;SDS011;8410;52.532;13.336;2022-07-29T03:05:00;5.40;;;3.57;;
16593;SDS011;8410;52.532;13.336;2022-07-29T03:07:31;7.77;;;3.63;;
16593;SDS011;8410;52.532;13.336;2022-07-29T03:10:01;8.30;;;3.47;;
16593;SDS011;8410;52.532;13.336;2022-07-29T03:12:38;6.13;;;3.57;;
16593;SDS011;8410;52.532;13.336;2022-07-29T03:15:08;5.87;;;3.50;;
16593;SDS011;8410;52.532;13.336;2022-07-29T03:17:38;5.33;;;3.53;;
16593;SDS011;8410;52.532;13.336;2022-07-29T03:20:08;4.83;;;3.60;;
16593;SDS011;8410;52.532;13.336;2022-07-29T03:22:39;6.83;;;3.43;;
16593;SDS011;8410;52.532;13.336;2022-07-29T03:25:10;7.73;;;3.50;;
16593;SDS011;8410;52.532;13.336;2022-07-29T03:27:39;6.23;;;3.70;;
16593;SDS011;8410;52.532;13.336;2022-07-29T03:30:08;6.13;;;3.33;;
16593;SDS011;8410;52.532;13.336;2022-07-29T03:32:48;8.03;;;4.07;;
16593;SDS011;8410;52.532;13.336;2022-07-29T03:35:18;4.63;;;3.43;;
16593;SDS011;8410;52.532;13.336;2022-07-29T03:37:46;6.30;;;3.47;;
16593;SDS011;8410;52.532;13.336;2022-07-29T03:40:16;4.13;;;3.20;;
16593;SDS011;8410;52.532;13.336;2022-07-29T03:42:49;6.87;;;3.47;;
16593;SDS011;8410;52.532;13.336;2022-07-29T03:45:21;8.67;;;3.57;;
16593;SDS011;8410;52.532;13.336;2022-07-29T03:47:55;9.40;;;4.20;;
16593;SDS011;8410;52.532;13.336;2022-07-29T03:50:28;5.60;;;3.50;;
16593;SDS011;8410;52.532;13.336;2022-07-29T03:52:58;6.47;;;3.83;;
16593;SDS011;8410;52.532;13.336;2022-07-29T03:55:26;6.80;;;3.67;;
16593;SDS011;8410;52.532;13.336;2022-07-29T03:57:59;6.80;;;3.83;;
16593;SDS011;8410;52.532;13.336;2022-07-29T04:00:29;5.23;;;3.33;;
16593;SDS011;8410;52.532;13.336;2022-07-29T04:03:00;5.63;;;3.53;;
16593;SDS011;8410;52.532;13.336;2022-07-29T04:05:36;6.97;;;3.43;;
16593;SDS011;8410;52.532;13.336;2022-07-29T04:08:05;7.63;;;4.10;;
16593;SDS011;8410;52.532;13.336;2022-07-29T04:10:33;7.63;;;3.70;;
16593;SDS011;8410;52.532;13.336;2022-07-29T04:13:01;9.67;;;3.80;;
16593;SDS011;8410;52.532;13.336;2022-07-29T04:15:29;6.73;;;3.40;;
16593;SDS011;8410;52.532;13.336;2022-07-29T04:17:57;5.53;;;3.57;;
16593;SDS011;8410;52.532;13.336;2022-07-29T04:20:27;7.30;;;3.70;;
16593;SDS011;8410;52.532;13.336;2022-07-29T04:22:55;5.60;;;3.50;;
16593;SDS011;8410;52.532;13.336;2022-07-29T04:25:23;5.97;;;3.33;;
16593;SDS011;8410;52.532;13.336;2022-07-29T04:27:50;7.37;;;3.60;;
16593;SDS011;8410;52.532;13.336;2022-07-29T04:30:28;8.70;;;3.50;;
16593;SDS011;8410;52.532;13.336;2022-07-29T04:32:57;4.60;;;3.30;;
16593;SDS011;8410;52.532;13.336;2022-07-29T04:35:28;5.20;;;3.70;;
16593;SDS011;8410;52.532;13.336;2022-07-29T04:38:03;5.70;;;3.37;;
16593;SDS011;8410;52.532;13.336;2022-07-29T04:40:41;4.83;;;3.33;;
16593;SDS011;8410;52.532;13.336;2022-07-29T04:43:09;12.37;;;3.43;;
16593;SDS011;8410;52.532;13.336;2022-07-29T04:45:39;5.40;;;3.50;;
16593;SDS011;8410;52.532;13.336;2022-07-29T04:48:07;7.83;;;3.37;;
16593;SDS011;8410;52.532;13.336;2022-07-29T04:50:38;6.80;;;3.47;;
16593;SDS011;8410;52.532;13.336;2022-07-29T04:53:07;4.57;;;3.07;;
16593;SDS011;8410;52.532;13.336;2022-07-29T04:55:35;7.47;;;3.37;;
16593;SDS011;8410;52.532;13.336;2022-07-29T04:58:04;6.67;;;3.70;;
16593;SDS011;8410;52.532;13.336;2022-07-29T05:00:32;7.73;;;3.70;;
16593;SDS011;8410;52.532;13.336;2022-07-29T05:03:00;6.80;;;3.60;;
16593;SDS011;8410;52.532;13.336;2022-07-29T05:05:28;4.83;;;3.47;;
16593;SDS011;8410;52.532;13.336;2022-07-29T05:07:58;7.83;;;3.60;;
16593;SDS011;8410;52.532;13.336;2022-07-29T05:10:26;7.73;;;3.53;;
16593;SDS011;8410;52.532;13.336;2022-07-29T05:12:54;5.70;;;3.23;;
16593;SDS011;8410;52.532;13.336;2022-07-29T05:15:22;8.40;;;4.33;;
16593;SDS011;8410;52.532;13.336;2022-07-29T05:17:50;8.40;;;4.00;;
16593;SDS011;8410;52.532;13.336;2022-07-29T05:20:18;6.83;;;3.60;;
16593;SDS011;8410;52.532;13.336;2022-07-29T05:22:52;12.77;;;7.03;;
16593;SDS011;8410;52.532;13.336;2022-07-29T05:25:21;6.30;;;4.00;;
16593;SDS011;8410;52.532;13.336;2022-07-29T05:28:09;9.47;;;4.40;;
16593;SDS011;8410;52.532;13.336;2022-07-29T05:30:37;9.33;;;4.33;;
16593;SDS011;8410;52.532;13.336;2022-07-29T05:33:06;7.83;;;3.67;;
16593;SDS011;8410;52.532;13.336;2022-07-29T05:35:54;6.57;;;3.93;;
16593;SDS011;8410;52.532;13.336;2022-07-29T05:38:26;7.17;;;3.40;;
16593;SDS011;8410;52.532;13.336;2022-07-29T05:40:57;5.97;;;3.57;;
16593;SDS011;8410;52.532;13.336;2022-07-29T05:43:26;8.03;;;3.50;;
16593;SDS011;8410;52.532;13.336;2022-07-29T05:45:54;8.40;;;3.43;;
16593;SDS011;8410;52.532;13.336;2022-07-29T05:48:23;8.67;;;3.93;;
16593;SDS011;8410;52.532;13.336;2022-07-29T05:50:51;5.63;;;3.50;;
16593;SDS011;8410;52.532;13.336;2022-07-29T05:53:20;6.67;;;3.17;;
16593;SDS011;8410;52.532;13.336;2022-07-29T05:55:50;5.17;;;3.50;;
16593;SDS011;8410;52.532;13.336;2022-07-29T05:58:20;8.27;;;3.77;;
16593;SDS011;8410;52.532;13.336;2022-07-29T06:00:48;7.43;;;3.83;;
16593;SDS011;8410;52.532;13.336;2022-07-29T06:03:16;10.00;;;3.80;;
16593;SDS011;8410;52.532;13.336;2022-07-29T06:05:44;12.07;;;3.47;;
16593;SDS011;8410;52.532;13.336;2022-07-29T06:08:12;6.83;;;3.50;;
16593;SDS011;8410;52.532;13.336;2022-07-29T06:10:40;7.43;;;3.43;;
16593;SDS011;8410;52.532;13.336;2022-07-29T06:13:09;6.20;;;3.50;;
16593;SDS011;8410;52.532;13.336;2022-07-29T06:15:38;8.47;;;3.17;;
16593;SDS011;8410;52.532;13.336;2022-07-29T06:18:06;5.20;;;2.93;;
16593;SDS011;8410;52.532;13.336;2022-07-29T06:20:36;7.63;;;3.30;;
16593;SDS011;8410;52.532;13.336;2022-07-29T06:23:04;6.03;;;3.13;;
16593;SDS011;8410;52.532;13.336;2022-07-29T06:25:33;13.00;;;4.07;;
16593;SDS011;8410;52.532;13.336;2022-07-29T06:28:03;9.03;;;3.13;;
16593;SDS011;8410;52.532;13.336;2022-07-29T06:30:31;4.77;;;3.10;;
16593;SDS011;8410;52.532;13.336;2022-07-29T06:33:01;5.30;;;3.17;;
16593;SDS011;8410;52.532;13.336;2022-07-29T06:35:29;6.20;;;3.47;;
16593;SDS011;8410;52.532;13.336;2022-07-29T06:38:07;7.30;;;3.63;;
16593;SDS011;8410;52.532;13.336;2022-07-29T06:40:56;9.23;;;3.37;;
16593;SDS011;8410;52.532;13.336;2022-07-29T06:43:27;7.27;;;3.07;;
16593;SDS011;8410;52.532;13.336;2022-07-29T06:46:00;6.60;;;3.90;;
16593;SDS011;8410;52.532;13.336;2022-07-29T06:48:32;9.50;;;3.07;;
16593;SDS011;8410;52.532;13.336;2022-07-29T06:51:02;4.73;;;2.97;;
16593;SDS011;8410;52.532;13.336;2022-07-29T06:53:31;6.87;;;3.17;;
16593;SDS011;8410;52.532;13.336;2022-07-29T06:56:00;6.23;;;2.90;;
16593;SDS011;8410;52.532;13.336;2022-07-29T06:58:30;9.55;;;3.47;;
16593;SDS011;8410;52.532;13.336;2022-07-29T07:00:58;9.70;;;3.37;;
16593;SDS011;8410;52.532;13.336;2022-07-29T07:03:32;7.80;;;3.30;;
16593;SDS011;8410;52.532;13.336;2022-07-29T07:06:00;6.47;;;3.00;;
16593;SDS011;8410;52.532;13.336;2022-07-29T07:08:29;9.30;;;3.77;;
16593;SDS011;8410;52.532;13.336;2022-07-29T07:10:57;14.93;;;3.08;;
16593;SDS011;8410;52.532;13.336;2022-07-29T07:13:25;6.15;;;2.85;;
16593;SDS011;8410;52.532;13.336;2022-07-29T07:15:55;9.20;;;2.92;;
16593;SDS011;8410;52.532;13.336;2022-07-29T07:18:23;8.95;;;3.10;;
16593;SDS011;8410;52.532;13.336;2022-07-29T07:20:53;7.88;;;3.20;;
16593;SDS011;8410;52.532;13.336;2022-07-29T07:23:21;8.52;;;2.97;;
16593;SDS011;8410;52.532;13.336;2022-07-29T07:25:49;5.65;;;2.67;;
16593;SDS011;8410;52.532;13.336;2022-07-29T07:28:17;7.22;;;2.88;;
16593;SDS011;8410;52.532;13.336;2022-07-29T07:30:50;9.35;;;3.30;;
16593;SDS011;8410;52.532;13.336;2022-07-29T07:33:19;4.93;;;2.72;;
16593;SDS011;8410;52.532;13.336;2022-07-29T07:35:47;7.13;;;3.03;;
16593;SDS011;8410;52.532;13.336;2022-07-29T07:38:17;8.75;;;2.97;;
16593;SDS011;8410;52.532;13.336;2022-07-29T07:40:45;6.13;;;2.33;;
16593;SDS011;8410;52.532;13.336;2022-07-29T07:43:13;8.63;;;2.80;;
16593;SDS011;8410;52.532;13.336;2022-07-29T07:45:41;8.18;;;3.10;;
16593;SDS011;8410;52.532;13.336;2022-07-29T07:48:09;6.65;;;2.97;;
16593;SDS011;8410;52.532;13.336;2022-07-29T07:50:37;7.30;;;2.67;;
16593;SDS011;8410;52.532;13.336;2022-07-29T07:53:06;7.90;;;2.67;;
16593;SDS011;8410;52.532;13.336;2022-07-29T07:55:38;6.22;;;2.60;;
16593;SDS011;8410;52.532;13.336;2022-07-29T07:58:28;5.82;;;2.38;;
16593;SDS011;8410;52.532;13.336;2022-07-29T08:00:56;6.18;;;2.38;;
16593;SDS011;8410;52.532;13.336;2022-07-29T08:03:24;7.22;;;2.33;;
16593;SDS011;8410;52.532;13.336;2022-07-29T08:05:52;7.22;;;2.65;;
16593;SDS011;8410;52.532;13.336;2022-07-29T08:08:20;7.40;;;2.55;;
16593;SDS011;8410;52.532;13.336;2022-07-29T08:10:50;7.07;;;2.47;;
16593;SDS011;8410;52.532;13.336;2022-07-29T08:13:22;6.72;;;2.30;;
16593;SDS011;8410;52.532;13.336;2022-07-29T08:15:54;4.10;;;2.00;;
16593;SDS011;8410;52.532;13.336;2022-07-29T08:18:26;6.45;;;2.45;;
16593;SDS011;8410;52.532;13.336;2022-07-29T08:20:57;5.63;;;2.22;;
16593;SDS011;8410;52.532;13.336;2022-07-29T08:23:25;9.32;;;2.20;;
16593;SDS011;8410;52.532;13.336;2022-07-29T08:26:16;5.18;;;2.13;;
16593;SDS011;8410;52.532;13.336;2022-07-29T08:28:46;4.90;;;2.35;;
16593;SDS011;8410;52.532;13.336;2022-07-29T08:31:16;2.80;;;1.63;;
16593;SDS011;8410;52.532;13.336;2022-07-29T08:33:44;3.53;;;2.10;;
16593;SDS011;8410;52.532;13.336;2022-07-29T08:36:13;5.00;;;2.17;;
16593;SDS011;8410;52.532;13.336;2022-07-29T08:38:41;5.90;;;2.10;;
16593;SDS011;8410;52.532;13.336;2022-07-29T08:41:09;3.00;;;1.98;;
16593;SDS011;8410;52.532;13.336;2022-07-29T08:43:39;6.25;;;1.90;;
16593;SDS011;8410;52.532;13.336;2022-07-29T08:46:07;4.28;;;2.05;;
16593;SDS011;8410;52.532;13.336;2022-07-29T08:48:36;4.78;;;2.30;;
16593;SDS011;8410;52.532;13.336;2022-07-29T08:51:06;6.90;;;2.03;;
16593;SDS011;8410;52.532;13.336;2022-07-29T08:53:35;7.18;;;2.35;;
16593;SDS011;8410;52.532;13.336;2022-07-29T08:56:04;5.88;;;2.22;;
16593;SDS011;8410;52.532;13.336;2022-07-29T08:58:33;4.55;;;2.35;;
16593;SDS011;8410;52.532;13.336;2022-07-29T09:01:05;3.92;;;1.60;;
16593;SDS011;8410;52.532;13.336;2022-07-29T09:03:39;12.90;;;2.30;;
16593;SDS011;8410;52.532;13.336;2022-07-29T09:06:07;3.22;;;1.90;;
16593;SDS011;8410;52.532;13.336;2022-07-29T09:08:36;6.07;;;2.00;;
16593;SDS011;8410;52.532;13.336;2022-07-29T09:11:04;4.22;;;2.22;;
16593;SDS011;8410;52.532;13.336;2022-07-29T09:13:33;4.35;;;1.95;;
16593;SDS011;8410;52.532;13.336;2022-07-29T09:16:02;11.27;;;2.30;;
16593;SDS011;8410;52.532;13.336;2022-07-29T09:18:35;3.38;;;1.85;;
16593;SDS011;8410;52.532;13.336;2022-07-29T09:21:06;6.22;;;2.42;;
16593;SDS011;8410;52.532;13.336;2022-07-29T09:24:01;5.22;;;2.40;;
16593;SDS011;8410;52.532;13.336;2022-07-29T09:26:34;5.93;;;2.22;;
16593;SDS011;8410;52.532;13.336;2022-07-29T09:29:10;4.78;;;1.88;;
16593;SDS011;8410;52.532;13.336;2022-07-29T09:31:42;6.70;;;2.15;;
16593;SDS011;8410;52.532;13.336;2022-07-29T09:34:13;5.00;;;2.33;;
16593;SDS011;8410;52.532;13.336;2022-07-29T09:36:44;6.78;;;2.38;;
16593;SDS011;8410;52.532;13.336;2022-07-29T09:39:16;5.53;;;2.28;;
16593;SDS011;8410;52.532;13.336;2022-07-29T09:41:56;3.05;;;1.98;;
16593;SDS011;8410;52.532;13.336;2022-07-29T09:44:39;3.90;;;2.53;;
16593;SDS011;8410;52.532;13.336;2022-07-29T09:47:11;4.25;;;1.90;;
16593;SDS011;8410;52.532;13.336;2022-07-29T09:49:50;7.55;;;2.70;;
16593;SDS011;8410;52.532;13.336;2022-07-29T09:52:20;9.55;;;2.00;;
16593;SDS011;8410;52.532;13.336;2022-07-29T09:54:48;3.15;;;1.50;;
16593;SDS011;8410;52.532;13.336;2022-07-29T09:57:24;7.25;;;2.10;;
16593;SDS011;8410;52.532;13.336;2022-07-29T09:59:57;6.40;;;2.42;;
16593;SDS011;8410;52.532;13.336;2022-07-29T10:02:30;5.53;;;1.95;;
16593;SDS011;8410;52.532;13.336;2022-07-29T10:05:01;5.78;;;2.15;;
16593;SDS011;8410;52.532;13.336;2022-07-29T10:07:43;4.72;;;1.98;;
16593;SDS011;8410;52.532;13.336;2022-07-29T10:10:19;13.43;;;2.55;;
16593;SDS011;8410;52.532;13.336;2022-07-29T10:12:54;8.77;;;2.22;;
16593;SDS011;8410;52.532;13.336;2022-07-29T10:15:32;9.63;;;1.80;;
16593;SDS011;8410;52.532;13.336;2022-07-29T10:18:06;7.50;;;1.90;;
16593;SDS011;8410;52.532;13.336;2022-07-29T10:20:35;7.95;;;2.13;;
16593;SDS011;8410;52.532;13.336;2022-07-29T10:23:05;2.72;;;1.83;;
16593;SDS011;8410;52.532;13.336;2022-07-29T10:25:33;6.20;;;1.70;;
16593;SDS011;8410;52.532;13.336;2022-07-29T10:28:01;3.90;;;1.70;;
16593;SDS011;8410;52.532;13.336;2022-07-29T10:30:29;2.65;;;1.58;;
16593;SDS011;8410;52.532;13.336;2022-07-29T10:36:12;6.00;;;1.90;;
16593;SDS011;8410;52.532;13.336;2022-07-29T10:39:15;2.67;;;1.80;;
16593;SDS011;8410;52.532;13.336;2022-07-29T10:42:11;6.60;;;1.60;;
16593;SDS011;8410;52.532;13.336;2022-07-29T10:44:59;3.65;;;1.70;;
16593;SDS011;8410;52.532;13.336;2022-07-29T10:47:31;3.38;;;2.03;;
16593;SDS011;8410;52.532;13.336;2022-07-29T10:50:02;6.80;;;1.90;;
16593;SDS011;8410;52.532;13.336;2022-07-29T10:55:30;5.70;;;1.90;;
16593;SDS011;8410;52.532;13.336;2022-07-29T10:58:10;5.35;;;2.03;;
16593;SDS011;8410;52.532;13.336;2022-07-29T11:00:44;4.70;;;2.30;;
16593;SDS011;8410;52.532;13.336;2022-07-29T11:09:37;3.10;;;1.48;;
16593;SDS011;8410;52.532;13.336;2022-07-29T11:12:15;5.78;;;1.80;;
16593;SDS011;8410;52.532;13.336;2022-07-29T11:15:18;5.55;;;1.85;;
16593;SDS011;8410;52.532;13.336;2022-07-29T11:18:05;2.10;;;1.67;;
16593;SDS011;8410;52.532;13.336;2022-07-29T11:20:41;3.63;;;1.85;;
16593;SDS011;8410;52.532;13.336;2022-07-29T11:23:20;4.30;;;1.92;;
16593;SDS011;8410;52.532;13.336;2022-07-29T11:29:05;4.55;;;1.92;;
16593;SDS011;8410;52.532;13.336;2022-07-29T11:31:49;4.63;;;1.80;;
16593;SDS011;8410;52.532;13.336;2022-07-29T11:34:22;4.35;;;1.77;;
16593;SDS011;8410;52.532;13.336;2022-07-29T11:37:13;2.60;;;1.73;;
16593;SDS011;8410;52.532;13.336;2022-07-29T11:42:44;5.32;;;2.30;;
16593;SDS011;8410;52.532;13.336;2022-07-29T11:45:19;5.65;;;2.25;;
16593;SDS011;8410;52.532;13.336;2022-07-29T11:48:17;3.80;;;2.25;;
16593;SDS011;8410;52.532;13.336;2022-07-29T11:50:56;4.15;;;2.28;;
16593;SDS011;8410;52.532;13.336;2022-07-29T11:53:25;5.70;;;2.30;;
16593;SDS011;8410;52.532;13.336;2022-07-29T11:55:58;3.97;;;2.05;;
16593;SDS011;8410;52.532;13.336;2022-07-29T11:58:28;4.38;;;2.20;;
16593;SDS011;8410;52.532;13.336;2022-07-29T12:00:59;4.75;;;2.13;;
16593;SDS011;8410;52.532;13.336;2022-07-29T12:03:30;2.78;;;2.15;;
16593;SDS011;8410;52.532;13.336;2022-07-29T12:06:01;4.93;;;2.35;;
16593;SDS011;8410;52.532;13.336;2022-07-29T12:08:39;3.78;;;2.60;;
16593;SDS011;8410;52.532;13.336;2022-07-29T12:11:16;5.70;;;2.35;;
16593;SDS011;8410;52.532;13.336;2022-07-29T12:13:47;4.38;;;2.25;;
16593;SDS011;8410;52.532;13.336;2022-07-29T12:16:17;4.53;;;2.90;;
16593;SDS011;8410;52.532;13.336;2022-07-29T12:18:55;7.05;;;2.60;;
16593;SDS011;8410;52.532;13.336;2022-07-29T12:21:25;3.08;;;2.30;;
16593;SDS011;8410;52.532;13.336;2022-07-29T12:23:56;4.38;;;2.05;;
16593;SDS011;8410;52.532;13.336;2022-07-29T12:26:34;6.70;;;2.40;;
16593;SDS011;8410;52.532;13.336;2022-07-29T12:29:05;4.70;;;2.30;;
16593;SDS011;8410;52.532;13.336;2022-07-29T12:31:48;5.10;;;2.45;;
16593;SDS011;8410;52.532;13.336;2022-07-29T12:34:23;3.28;;;2.58;;
16593;SDS011;8410;52.532;13.336;2022-07-29T12:36:55;9.45;;;3.70;;
16593;SDS011;8410;52.532;13.336;2022-07-29T12:39:24;6.05;;;2.53;;
16593;SDS011;8410;52.532;13.336;2022-07-29T12:41:54;5.13;;;2.70;;
16593;SDS011;8410;52.532;13.336;2022-07-29T12:44:42;4.13;;;2.67;;
16593;SDS011;8410;52.532;13.336;2022-07-29T12:47:13;5.00;;;2.53;;
16593;SDS011;8410;52.532;13.336;2022-07-29T12:49:42;5.20;;;3.05;;
16593;SDS011;8410;52.532;13.336;2022-07-29T12:52:22;7.68;;;2.85;;
16593;SDS011;8410;52.532;13.336;2022-07-29T12:54:52;5.53;;;2.67;;
16593;SDS011;8410;52.532;13.336;2022-07-29T12:57:21;5.75;;;2.60;;
16593;SDS011;8410;52.532;13.336;2022-07-29T13:00:00;5.20;;;2.97;;
16593;SDS011;8410;52.532;13.336;2022-07-29T13:02:37;4.40;;;2.78;;
16593;SDS011;8410;52.532;13.336;2022-07-29T13:05:07;5.40;;;2.30;;
16593;SDS011;8410;52.532;13.336;2022-07-29T13:07:37;6.18;;;2.60;;
16593;SDS011;8410;52.532;13.336;2022-07-29T13:10:22;7.00;;;2.60;;
16593;SDS011;8410;52.532;13.336;2022-07-29T13:13:01;3.05;;;2.50;;
16593;SDS011;8410;52.532;13.336;2022-07-29T13:15:31;3.45;;;2.65;;
16593;SDS011;8410;52.532;13.336;2022-07-29T13:18:01;4.38;;;2.70;;
16593;SDS011;8410;52.532;13.336;2022-07-29T13:20:31;11.15;;;2.65;;
16593;SDS011;8410;52.532;13.336;2022-07-29T13:22:59;4.88;;;3.17;;
16593;SDS011;8410;52.532;13.336;2022-07-29T13:25:28;5.97;;;2.50;;
16593;SDS011;8410;52.532;13.336;2022-07-29T13:28:00;3.35;;;2.33;;
16593;SDS011;8410;52.532;13.336;2022-07-29T13:30:28;3.88;;;2.63;;
16593;SDS011;8410;52.532;13.336;2022-07-29T13:32:56;4.60;;;2.95;;
16593;SDS011;8410;52.532;13.336;2022-07-29T13:35:25;3.42;;;2.63;;
16593;SDS011;8410;52.532;13.336;2022-07-29T13:37:55;3.70;;;2.55;;
16593;SDS011;8410;52.532;13.336;2022-07-29T13:40:23;2.95;;;2.60;;
16593;SDS011;8410;52.532;13.336;2022-07-29T13:42:52;4.00;;;2.30;;
16593;SDS011;8410;52.532;13.336;2022-07-29T13:45:20;3.45;;;2.70;;
16593;SDS011;8410;52.532;13.336;2022-07-29T13:47:48;5.82;;;2.40;;
16593;SDS011;8410;52.532;13.336;2022-07-29T13:50:16;5.07;;;2.60;;
16593;SDS011;8410;52.532;13.336;2022-07-29T13:52:45;5.38;;;2.85;;
16593;SDS011;8410;52.532;13.336;2022-07-29T13:55:14;3.13;;;2.83;;
16593;SDS011;8410;52.532;13.336;2022-07-29T13:57:42;5.10;;;2.97;;
16593;SDS011;8410;52.532;13.336;2022-07-29T14:00:10;4.55;;;2.63;;
16593;SDS011;8410;52.532;13.336;2022-07-29T14:02:39;4.65;;;2.20;;
16593;SDS011;8410;52.532;13.336;2022-07-29T14:05:08;2.72;;;2.47;;
16593;SDS011;8410;52.532;13.336;2022-07-29T14:07:37;3.90;;;2.70;;
16593;SDS011;8410;52.532;13.336;2022-07-29T14:10:07;6.00;;;2.88;;
16593;SDS011;8410;52.532;13.336;2022-07-29T14:12:36;3.28;;;2.85;;
16593;SDS011;8410;52.532;13.336;2022-07-29T14:15:05;5.40;;;3.28;;
16593;SDS011;8410;52.532;13.336;2022-07-29T14:17:34;4.38;;;2.65;;
16593;SDS011;8410;52.532;13.336;2022-07-29T14:20:02;3.45;;;2.75;;
16593;SDS011;8410;52.532;13.336;2022-07-29T14:22:31;7.43;;;3.22;;
16593;SDS011;8410;52.532;13.336;2022-07-29T14:25:07;5.05;;;3.13;;
16593;SDS011;8410;52.532;13.336;2022-07-29T14:27:40;3.25;;;2.95;;
16593;SDS011;8410;52.532;13.336;2022-07-29T14:30:09;4.32;;;3.13;;
16593;SDS011;8410;52.532;13.336;2022-07-29T14:32:38;3.65;;;2.50;;
16593;SDS011;8410;52.532;13.336;2022-07-29T14:35:06;3.28;;;2.50;;
16593;SDS011;8410;52.532;13.336;2022-07-29T14:37:35;3.72;;;2.63;;
16593;SDS011;8410;52.532;13.336;2022-07-29T14:40:07;6.97;;;3.50;;
16593;SDS011;8410;52.532;13.336;2022-07-29T14:42:37;4.35;;;2.70;;
16593;SDS011;8410;52.532;13.336;2022-07-29T14:45:05;3.58;;;2.40;;
16593;SDS011;8410;52.532;13.336;2022-07-29T14:47:36;4.53;;;2.85;;
16593;SDS011;8410;52.532;13.336;2022-07-29T14:50:05;4.25;;;2.65;;
16593;SDS011;8410;52.532;13.336;2022-07-29T14:52:35;7.45;;;3.00;;
16593;SDS011;8410;52.532;13.336;2022-07-29T14:55:04;3.13;;;2.53;;
16593;SDS011;8410;52.532;13.336;2022-07-29T14:57:45;6.50;;;2.95;;
16593;SDS011;8410;52.532;13.336;2022-07-29T15:00:14;4.22;;;2.85;;
16593;SDS011;8410;52.532;13.336;2022-07-29T15:02:43;3.58;;;2.70;;
16593;SDS011;8410;52.532;13.336;2022-07-29T15:05:27;6.20;;;3.35;;
16593;SDS011;8410;52.532;13.336;2022-07-29T15:07:55;3.92;;;2.95;;
16593;SDS011;8410;52.532;13.336;2022-07-29T15:10:24;6.18;;;2.70;;
16593;SDS011;8410;52.532;13.336;2022-07-29T15:12:53;4.93;;;2.65;;
16593;SDS011;8410;52.532;13.336;2022-07-29T15:15:21;5.68;;;2.63;;
16593;SDS011;8410;52.532;13.336;2022-07-29T15:17:49;5.32;;;3.00;;
16593;SDS011;8410;52.532;13.336;2022-07-29T15:20:17;3.58;;;2.80;;
16593;SDS011;8410;52.532;13.336;2022-07-29T15:22:45;4.45;;;2.70;;
16593;SDS011;8410;52.532;13.336;2022-07-29T15:25:13;5.15;;;2.67;;
16593;SDS011;8410;52.532;13.336;2022-07-29T15:27:42;4.47;;;3.25;;
16593;SDS011;8410;52.532;13.336;2022-07-29T15:30:18;6.28;;;3.15;;
16593;SDS011;8410;52.532;13.336;2022-07-29T15:32:58;6.18;;;2.75;;
16593;SDS011;8410;52.532;13.336;2022-07-29T15:35:26;3.42;;;2.83;;